Time;durP1;ratioP1;P1;durP2;ratioP2;P2;SDS_P1;SDS_P2;PMS_P1;PMS_P2;Temp;Humidity;BMP_temperature;BMP_pressure;BME280_temperature;BME280_humidity;BME280_pressure;Samples;Min_cycle;Max_cycle;Signal;HPM_P1;HPM_P2
2021/04/23 00:00:34;;;;;;;38.17;10.63;;;0.20;99.90;;;;;;4441641;28;656775;-66
2021/04/23 00:03:24;;;;;;;62.10;14.40;;;0.20;99.90;;;;;;4415225;28;657932;-66
2021/04/23 00:06:15;;;;;;;49.10;13.03;;;0.20;99.90;;;;;;4406131;28;657903;-66
2021/04/23 00:09:14;;;;;;;75.53;16.73;;;0.20;99.90;;;;;;4401910;28;657971;-68
2021/04/23 00:12:04;;;;;;;67.30;15.80;;;0.30;99.90;;;;;;4404911;28;657821;-67
2021/04/23 00:14:52;;;;;;;55.73;12.53;;;0.30;99.90;;;;;;4416747;28;658203;-67
2021/04/23 00:17:40;;;;;;;43.33;12.67;;;0.30;99.90;;;;;;4424087;28;658174;-66
2021/04/23 00:20:28;;;;;;;34.73;11.23;;;0.30;99.90;;;;;;4441237;28;658024;-67
2021/04/23 00:23:15;;;;;;;33.65;9.50;;;0.40;99.90;;;;;;4448208;28;657488;-67
2021/04/23 00:26:03;;;;;;;30.48;9.80;;;0.50;99.90;;;;;;4426532;28;656675;-68
2021/04/23 00:28:49;;;;;;;33.40;10.47;;;0.60;99.90;;;;;;4448053;28;658298;-67
2021/04/23 00:31:37;;;;;;;34.77;11.23;;;0.70;99.90;;;;;;4445894;28;657452;-66
2021/04/23 00:34:25;;;;;;;34.33;11.33;;;0.90;99.90;;;;;;4417267;28;658428;-67
2021/04/23 00:37:12;;;;;;;29.77;10.27;;;0.90;99.90;;;;;;4426912;28;657694;-68
2021/04/23 00:39:59;;;;;;;30.75;9.88;;;1.00;99.90;;;;;;4450281;28;657289;-66
2021/04/23 00:42:46;;;;;;;32.63;10.80;;;1.00;99.90;;;;;;4446603;28;656826;-66
2021/04/23 00:45:33;;;;;;;33.13;10.63;;;1.00;99.90;;;;;;4427733;28;657673;-67
2021/04/23 00:48:20;;;;;;;35.50;10.30;;;1.00;99.90;;;;;;4443185;28;658911;-67
2021/04/23 00:51:10;;;;;;;33.10;10.23;;;1.00;99.90;;;;;;4427937;28;657759;-66
2021/04/23 00:53:57;;;;;;;40.63;10.30;;;1.00;99.90;;;;;;4444578;28;657285;-66
2021/04/23 00:56:43;;;;;;;33.60;10.37;;;1.00;99.90;;;;;;4426300;28;657607;-67
2021/04/23 00:59:30;;;;;;;35.70;11.50;;;1.10;99.90;;;;;;4446235;28;658973;-66
2021/04/23 01:02:18;;;;;;;33.87;10.77;;;1.10;99.90;;;;;;4420889;28;657780;-67
2021/04/23 01:05:05;;;;;;;29.80;10.33;;;1.20;99.90;;;;;;4440215;28;658201;-66
2021/04/23 01:07:53;;;;;;;35.03;10.73;;;1.20;99.90;;;;;;4426422;28;657964;-67
2021/04/23 01:10:40;;;;;;;34.97;10.50;;;1.30;99.90;;;;;;4444642;28;657991;-66
2021/04/23 01:13:31;;;;;;;30.10;9.67;;;1.20;99.90;;;;;;4430585;28;657707;-67
2021/04/23 01:16:19;;;;;;;36.43;10.27;;;1.20;99.90;;;;;;4433409;28;656696;-67
2021/04/23 01:19:07;;;;;;;30.47;10.57;;;1.20;99.90;;;;;;4445399;28;657996;-67
2021/04/23 01:21:55;;;;;;;28.83;11.70;;;1.20;99.90;;;;;;4431802;28;658121;-67
2021/04/23 01:24:41;;;;;;;32.30;11.20;;;1.10;99.90;;;;;;4450399;28;657654;-66
2021/04/23 01:27:29;;;;;;;30.10;11.73;;;1.10;99.90;;;;;;4421106;28;657837;-66
2021/04/23 01:30:17;;;;;;;33.20;11.47;;;1.10;99.90;;;;;;4451302;28;658279;-66
2021/04/23 01:33:04;;;;;;;30.70;10.97;;;1.10;99.90;;;;;;4428283;28;658295;-66
2021/04/23 01:35:51;;;;;;;30.13;10.50;;;1.00;99.90;;;;;;4455125;28;657740;-66
2021/04/23 01:38:39;;;;;;;29.77;10.87;;;1.00;99.90;;;;;;4432108;28;657614;-67
2021/04/23 01:41:26;;;;;;;35.03;11.17;;;1.00;99.90;;;;;;4445548;28;658021;-66
2021/04/23 01:44:13;;;;;;;38.57;12.23;;;1.10;99.90;;;;;;4432604;28;657856;-66
2021/04/23 01:47:00;;;;;;;31.37;10.87;;;1.10;99.90;;;;;;4449337;28;657857;-67
2021/04/23 01:49:47;;;;;;;29.60;11.13;;;1.10;99.90;;;;;;4433889;28;657412;-67
2021/04/23 01:52:34;;;;;;;37.30;11.10;;;1.20;99.90;;;;;;4441545;28;657177;-66
2021/04/23 01:55:23;;;;;;;31.60;11.53;;;1.20;99.90;;;;;;4451494;28;657791;-66
2021/04/23 01:58:10;;;;;;;28.02;11.15;;;1.20;99.90;;;;;;4425691;28;658474;-66
2021/04/23 02:00:57;;;;;;;27.87;11.33;;;1.10;99.90;;;;;;4446676;28;657674;-67
2021/04/23 02:03:44;;;;;;;31.73;11.03;;;1.10;99.90;;;;;;4454725;28;658006;-67
2021/04/23 02:06:31;;;;;;;31.37;11.70;;;1.10;99.90;;;;;;4449932;28;657784;-66
2021/04/23 02:09:19;;;;;;;36.40;11.53;;;1.00;99.90;;;;;;4427981;28;657890;-66
2021/04/23 02:12:07;;;;;;;28.57;11.13;;;1.00;99.90;;;;;;4451090;28;658669;-66
2021/04/23 02:14:54;;;;;;;34.07;11.80;;;1.00;99.90;;;;;;4429230;28;657820;-66
2021/04/23 02:17:42;;;;;;;42.83;13.97;;;1.00;99.90;;;;;;4443141;28;657410;-66
2021/04/23 02:20:30;;;;;;;33.17;12.07;;;1.10;99.90;;;;;;4425152;28;658940;-67
2021/04/23 02:23:19;;;;;;;40.10;12.88;;;1.10;99.90;;;;;;4433795;28;657937;-67
2021/04/23 02:26:05;;;;;;;42.03;13.53;;;1.10;99.90;;;;;;4448106;28;658532;-66
2021/04/23 02:28:54;;;;;;;39.03;14.80;;;1.10;99.90;;;;;;4422712;28;657534;-67
2021/04/23 02:31:42;;;;;;;37.05;13.98;;;1.10;99.90;;;;;;4445748;28;657489;-66
2021/04/23 02:34:29;;;;;;;36.83;12.57;;;1.10;99.90;;;;;;4425219;28;658696;-67
2021/04/23 02:37:16;;;;;;;34.47;11.90;;;1.00;99.90;;;;;;4445920;28;658148;-66
2021/04/23 02:40:04;;;;;;;33.00;12.77;;;0.90;99.90;;;;;;4413256;28;657601;-67
2021/04/23 02:42:51;;;;;;;34.40;12.67;;;1.00;99.90;;;;;;4439085;28;658063;-66
2021/04/23 02:45:39;;;;;;;35.43;12.67;;;0.90;99.90;;;;;;4421135;28;657227;-67
2021/04/23 02:48:27;;;;;;;35.05;13.07;;;0.80;99.90;;;;;;4443469;28;657823;-66
2021/04/23 02:51:15;;;;;;;40.83;14.13;;;0.80;99.90;;;;;;4426084;28;657932;-67
2021/04/23 02:54:03;;;;;;;32.07;12.50;;;0.90;99.90;;;;;;4429811;28;658027;-67
2021/04/23 02:56:50;;;;;;;38.90;13.83;;;0.90;99.90;;;;;;4446636;28;659006;-66
2021/04/23 02:59:37;;;;;;;33.33;14.53;;;0.80;99.90;;;;;;4443570;28;657880;-67
2021/04/23 03:02:25;;;;;;;34.23;13.93;;;0.80;99.90;;;;;;4451248;28;657024;-67
2021/04/23 03:05:13;;;;;;;37.63;15.17;;;0.80;99.90;;;;;;4423246;28;657696;-67
2021/04/23 03:08:00;;;;;;;31.77;14.13;;;0.80;99.90;;;;;;4439386;28;659209;-67
2021/04/23 03:10:48;;;;;;;37.90;13.80;;;0.80;99.90;;;;;;4439662;28;657261;-67
2021/04/23 03:13:35;;;;;;;30.47;13.67;;;0.70;99.90;;;;;;4428416;28;658492;-66
2021/04/23 03:16:23;;;;;;;38.13;14.17;;;0.70;99.90;;;;;;4442459;28;657388;-67
2021/04/23 03:19:12;;;;;;;33.13;13.90;;;0.70;99.90;;;;;;4439336;28;658125;-66
2021/04/23 03:21:59;;;;;;;34.13;14.63;;;0.70;99.90;;;;;;4424962;28;658834;-66
2021/04/23 03:24:46;;;;;;;30.23;13.13;;;0.70;99.90;;;;;;4443172;28;657336;-67
2021/04/23 03:27:33;;;;;;;37.50;14.10;;;0.60;99.90;;;;;;4428051;28;657906;-66
2021/04/23 03:30:22;;;;;;;37.37;14.37;;;0.60;99.90;;;;;;4442465;28;659461;-66
2021/04/23 03:33:09;;;;;;;34.73;14.77;;;0.60;99.90;;;;;;4419049;28;657964;-66
2021/04/23 03:35:58;;;;;;;47.27;15.67;;;0.60;99.90;;;;;;4434709;28;657924;-67
2021/04/23 03:38:46;;;;;;;40.30;16.43;;;0.60;99.90;;;;;;4419508;28;657745;-67
2021/04/23 03:41:33;;;;;;;36.10;15.97;;;0.60;99.90;;;;;;4419937;28;657634;-67
2021/04/23 03:44:20;;;;;;;44.93;16.13;;;0.60;99.90;;;;;;4439246;28;659050;-66
2021/04/23 03:47:07;;;;;;;36.23;14.63;;;0.60;99.90;;;;;;4420196;28;658132;-67
2021/04/23 03:49:54;;;;;;;38.60;13.60;;;0.60;99.90;;;;;;4447722;28;658003;-67
2021/04/23 03:52:42;;;;;;;29.57;13.40;;;0.60;99.90;;;;;;4447753;28;658318;-67
2021/04/23 03:55:31;;;;;;;39.27;15.77;;;0.50;99.90;;;;;;4423850;28;658398;-67
2021/04/23 03:58:18;;;;;;;37.00;14.63;;;0.40;99.90;;;;;;4419129;28;658578;-67
2021/04/23 04:01:07;;;;;;;31.80;13.53;;;0.30;99.90;;;;;;4450358;28;658265;-67
2021/04/23 04:03:54;;;;;;;34.87;14.53;;;0.30;99.90;;;;;;4427093;28;657757;-67
2021/04/23 04:06:41;;;;;;;38.50;16.07;;;0.30;99.90;;;;;;4446647;28;658242;-67
2021/04/23 04:09:29;;;;;;;39.93;15.67;;;0.40;99.90;;;;;;4428199;28;657398;-67
2021/04/23 04:12:16;;;;;;;40.70;14.90;;;0.30;99.90;;;;;;4439448;28;657569;-67
2021/04/23 04:15:04;;;;;;;39.10;14.30;;;0.30;99.90;;;;;;4425122;28;658056;-67
2021/04/23 04:17:51;;;;;;;32.10;13.20;;;0.40;99.90;;;;;;4446700;28;657754;-67
2021/04/23 04:20:39;;;;;;;37.95;15.30;;;0.30;99.90;;;;;;4427406;28;657697;-66
2021/04/23 04:23:26;;;;;;;45.03;16.90;;;0.40;99.90;;;;;;4450021;28;657378;-67
2021/04/23 04:26:14;;;;;;;39.13;15.53;;;0.50;99.90;;;;;;4427088;28;658892;-68
2021/04/23 04:29:01;;;;;;;34.87;15.83;;;0.60;99.90;;;;;;4450299;28;657226;-67
2021/04/23 04:31:48;;;;;;;35.08;15.35;;;0.70;99.90;;;;;;4424872;28;657877;-68
2021/04/23 04:34:35;;;;;;;35.17;15.95;;;0.70;99.90;;;;;;4443959;28;658165;-67
2021/04/23 04:37:22;;;;;;;32.90;15.60;;;0.90;99.90;;;;;;4420561;28;658133;-68
2021/04/23 04:40:10;;;;;;;37.20;15.40;;;1.00;99.90;;;;;;4441674;28;657252;-67
2021/04/23 04:42:58;;;;;;;38.20;15.98;;;1.10;99.90;;;;;;4423039;28;658110;-68
2021/04/23 04:45:45;;;;;;;39.60;15.93;;;1.30;99.90;;;;;;4446356;28;657626;-67
2021/04/23 04:48:32;;;;;;;38.97;15.77;;;1.40;99.90;;;;;;4419672;28;658223;-68
2021/04/23 04:51:19;;;;;;;34.13;15.38;;;1.50;99.90;;;;;;4451374;28;658190;-67
2021/04/23 04:54:07;;;;;;;37.83;15.80;;;1.60;99.90;;;;;;4430669;28;658724;-67
2021/04/23 04:56:54;;;;;;;35.60;15.27;;;1.60;99.90;;;;;;4427045;28;657800;-66
2021/04/23 04:59:44;;;;;;;38.17;15.80;;;1.70;99.90;;;;;;4445683;28;658697;-67
2021/04/23 05:02:31;;;;;;;39.57;17.17;;;1.70;99.90;;;;;;4422371;28;657994;-68
2021/04/23 05:05:18;;;;;;;38.53;16.25;;;1.90;99.90;;;;;;4411490;28;658345;-68
2021/04/23 05:08:05;;;;;;;35.97;16.50;;;2.10;99.90;;;;;;4444317;28;658479;-68
2021/04/23 05:10:52;;;;;;;53.83;18.98;;;2.20;99.90;;;;;;4418640;28;659097;-69
2021/04/23 05:13:39;;;;;;;49.93;19.60;;;2.20;99.90;;;;;;4448984;28;657941;-67
2021/04/23 05:16:27;;;;;;;51.23;20.43;;;2.30;99.90;;;;;;4445716;28;657642;-67
2021/04/23 05:19:14;;;;;;;44.63;19.50;;;2.40;99.90;;;;;;4425763;28;658226;-68
2021/04/23 05:22:01;;;;;;;37.87;16.77;;;2.60;99.90;;;;;;4450317;28;657995;-67
2021/04/23 05:24:49;;;;;;;41.67;18.23;;;2.70;99.90;;;;;;4424955;28;658141;-68
2021/04/23 05:27:36;;;;;;;42.00;17.63;;;2.80;99.90;;;;;;4445231;28;657864;-68
2021/04/23 05:30:24;;;;;;;46.87;17.33;;;3.00;99.90;;;;;;4420803;28;658466;-67
2021/04/23 05:33:12;;;;;;;37.42;17.38;;;3.00;99.90;;;;;;4445772;28;657243;-67
2021/04/23 05:35:59;;;;;;;37.07;16.47;;;3.10;99.90;;;;;;4417984;28;658775;-67
2021/04/23 05:38:46;;;;;;;44.30;17.67;;;3.20;99.90;;;;;;4445234;28;657738;-68
2021/04/23 05:41:33;;;;;;;34.55;16.00;;;3.20;99.90;;;;;;4410024;28;658057;-68
2021/04/23 05:44:20;;;;;;;35.75;15.93;;;3.30;99.90;;;;;;4444434;28;658049;-68
2021/04/23 05:47:07;;;;;;;43.35;17.95;;;3.50;99.90;;;;;;4419467;28;657412;-68
2021/04/23 05:49:55;;;;;;;38.30;16.70;;;3.60;99.90;;;;;;4442927;28;657084;-67
2021/04/23 05:52:43;;;;;;;38.63;17.93;;;3.70;99.90;;;;;;4429010;28;657581;-69
2021/04/23 05:55:29;;;;;;;41.27;17.57;;;3.80;99.90;;;;;;4441435;28;659197;-70
2021/04/23 05:58:16;;;;;;;39.57;16.90;;;3.90;99.90;;;;;;4447500;28;657563;-70
2021/04/23 06:01:03;;;;;;;37.40;17.40;;;4.10;99.90;;;;;;4415233;28;657805;-70
2021/04/23 06:03:50;;;;;;;44.30;17.80;;;4.20;99.90;;;;;;4448874;28;657981;-70
2021/04/23 06:06:39;;;;;;;39.73;16.70;;;4.20;99.90;;;;;;4428888;28;657530;-69
2021/04/23 06:09:26;;;;;;;41.47;18.00;;;4.10;99.90;;;;;;4448829;28;658147;-70
2021/04/23 06:12:12;;;;;;;43.03;19.13;;;4.00;99.90;;;;;;4424657;28;657793;-69
2021/04/23 06:14:59;;;;;;;34.70;18.30;;;4.00;99.90;;;;;;4430924;28;657973;-70
2021/04/23 06:17:46;;;;;;;41.07;18.73;;;4.10;99.90;;;;;;4446966;28;657595;-71
2021/04/23 06:20:34;;;;;;;45.07;18.93;;;4.20;99.90;;;;;;4430454;28;657602;-70
2021/04/23 06:23:26;;;;;;;42.38;18.00;;;4.10;99.90;;;;;;4450069;28;657584;-70
2021/04/23 06:26:14;;;;;;;41.20;18.50;;;4.00;99.90;;;;;;4430502;28;657918;-69
2021/04/23 06:29:02;;;;;;;43.03;18.67;;;3.90;99.90;;;;;;4448810;28;657397;-70
2021/04/23 06:31:48;;;;;;;35.80;16.63;;;3.90;99.90;;;;;;4430522;28;657274;-70
2021/04/23 06:34:35;;;;;;;40.90;16.67;;;3.90;99.90;;;;;;4449031;28;657945;-70
2021/04/23 06:37:22;;;;;;;42.33;18.53;;;3.90;99.90;;;;;;4429065;28;657810;-70
2021/04/23 06:40:11;;;;;;;38.20;17.63;;;4.00;99.90;;;;;;4447281;28;658520;-70
2021/04/23 06:42:58;;;;;;;39.60;17.53;;;4.10;99.90;;;;;;4426590;28;658349;-70
2021/04/23 06:45:45;;;;;;;43.63;17.93;;;4.20;99.90;;;;;;4447861;28;658552;-70
2021/04/23 06:48:32;;;;;;;42.97;17.83;;;4.50;99.90;;;;;;4404923;28;657576;-69
2021/04/23 06:51:20;;;;;;;41.27;18.97;;;4.60;99.90;;;;;;4428276;28;657533;-70
2021/04/23 06:54:08;;;;;;;45.13;20.83;;;4.80;99.90;;;;;;4415397;28;657932;-69
2021/04/23 06:56:56;;;;;;;42.60;18.70;;;5.10;99.90;;;;;;4434648;28;658586;-70
2021/04/23 06:59:43;;;;;;;53.63;20.87;;;5.30;99.90;;;;;;4428457;28;657911;-70
2021/04/23 07:02:30;;;;;;;45.67;18.27;;;5.30;99.90;;;;;;4447302;28;657620;-70
2021/04/23 07:05:17;;;;;;;40.93;18.83;;;5.30;99.90;;;;;;4444360;28;657533;-69
2021/04/23 07:08:05;;;;;;;41.37;18.43;;;5.10;99.90;;;;;;4447845;28;658593;-70
2021/04/23 07:10:52;;;;;;;43.97;19.67;;;5.00;99.90;;;;;;4438795;28;657938;-69
2021/04/23 07:13:40;;;;;;;44.83;19.77;;;5.00;99.90;;;;;;4448741;28;657403;-71
2021/04/23 07:16:27;;;;;;;45.57;19.40;;;5.00;99.90;;;;;;4427923;28;658110;-69
2021/04/23 07:19:14;;;;;;;50.30;20.00;;;5.10;99.90;;;;;;4451207;28;657645;-70
2021/04/23 07:22:01;;;;;;;45.33;19.80;;;5.10;99.90;;;;;;4445499;28;657895;-70
2021/04/23 07:24:48;;;;;;;45.93;20.97;;;4.90;99.90;;;;;;4425357;28;657721;-69
2021/04/23 07:27:36;;;;;;;51.03;19.08;;;4.90;99.90;;;;;;4446950;28;658475;-70
2021/04/23 07:30:25;;;;;;;40.83;16.87;;;5.00;99.90;;;;;;4422064;28;658404;-70
2021/04/23 07:33:13;;;;;;;40.37;16.33;;;5.10;99.90;;;;;;4432273;28;658017;-70
2021/04/23 07:36:00;;;;;;;41.50;15.23;;;5.10;99.90;;;;;;4446285;28;657395;-70
2021/04/23 07:38:47;;;;;;;35.40;14.43;;;5.30;99.90;;;;;;4438250;28;657621;-69
2021/04/23 07:41:34;;;;;;;35.83;14.30;;;5.50;99.90;;;;;;4451506;28;657253;-70
2021/04/23 07:44:21;;;;;;;31.93;15.13;;;5.50;99.90;;;;;;4449586;28;657913;-68
2021/04/23 07:47:09;;;;;;;30.63;13.80;;;5.40;99.90;;;;;;4425764;28;658053;-69
2021/04/23 07:49:56;;;;;;;40.40;15.03;;;5.60;99.90;;;;;;4445616;28;657798;-71
2021/04/23 07:52:43;;;;;;;34.03;15.63;;;5.70;99.90;;;;;;4429034;28;657584;-70
2021/04/23 07:55:30;;;;;;;35.60;14.60;;;6.00;99.90;;;;;;4452229;28;657833;-70
2021/04/23 07:58:17;;;;;;;27.92;13.52;;;6.40;99.90;;;;;;4417754;28;658076;-69
2021/04/23 08:01:04;;;;;;;35.60;14.43;;;6.50;99.90;;;;;;4445833;28;658090;-70
2021/04/23 08:03:52;;;;;;;26.77;14.00;;;6.70;99.90;;;;;;4447498;28;657919;-71
2021/04/23 08:06:39;;;;;;;39.80;15.13;;;6.90;99.90;;;;;;4424330;28;657357;-71
2021/04/23 08:09:26;;;;;;;25.20;12.10;;;7.10;99.90;;;;;;4446462;28;657758;-68
2021/04/23 08:12:13;;;;;;;27.23;12.17;;;7.20;99.90;;;;;;4420992;28;658176;-70
2021/04/23 08:15:00;;;;;;;19.93;8.60;;;7.00;99.90;;;;;;4434205;28;658708;-69
2021/04/23 08:17:47;;;;;;;17.03;9.20;;;7.00;99.90;;;;;;4429743;28;656397;-70
2021/04/23 08:20:35;;;;;;;22.90;11.53;;;6.80;99.90;;;;;;4448108;28;657118;-69
2021/04/23 08:23:22;;;;;;;23.67;11.13;;;6.50;99.90;;;;;;4426632;28;657736;-69
2021/04/23 08:26:10;;;;;;;20.40;9.60;;;6.40;99.90;;;;;;4446170;28;657625;-70
2021/04/23 08:28:57;;;;;;;24.95;10.45;;;6.50;99.90;;;;;;4433971;28;656610;-69
2021/04/23 08:31:44;;;;;;;26.63;10.90;;;6.80;99.90;;;;;;4447883;28;658863;-70
2021/04/23 08:34:31;;;;;;;23.70;9.77;;;6.90;99.90;;;;;;4437204;28;657922;-70
2021/04/23 08:37:19;;;;;;;19.57;10.07;;;6.90;99.90;;;;;;4426387;28;656559;-68
2021/04/23 08:40:07;;;;;;;24.10;10.97;;;6.80;99.90;;;;;;4441255;28;657993;-69
2021/04/23 08:42:54;;;;;;;24.67;10.77;;;6.90;99.90;;;;;;4424414;28;659103;-71
2021/04/23 08:45:41;;;;;;;24.37;12.20;;;6.80;99.90;;;;;;4446258;28;657373;-71
2021/04/23 08:48:28;;;;;;;24.50;11.40;;;6.80;99.90;;;;;;4426247;28;657805;-71
2021/04/23 08:51:16;;;;;;;24.60;10.93;;;7.20;99.90;;;;;;4445038;28;658520;-70
2021/04/23 08:54:05;;;;;;;24.33;11.40;;;7.80;99.90;;;;;;4412693;28;657506;-70
2021/04/23 08:56:52;;;;;;;19.90;10.30;;;8.00;99.90;;;;;;4419737;28;657714;-69
2021/04/23 08:59:39;;;;;;;19.00;8.60;;;7.80;99.90;;;;;;4447019;28;657805;-70
2021/04/23 09:02:26;;;;;;;22.80;9.20;;;7.50;99.90;;;;;;4445885;28;657777;-70
2021/04/23 09:05:14;;;;;;;18.77;9.17;;;7.30;99.90;;;;;;4424042;28;656740;-70
2021/04/23 09:08:03;;;;;;;17.73;8.57;;;7.40;99.90;;;;;;4436319;28;656390;-70
2021/04/23 09:10:51;;;;;;;17.67;8.43;;;7.50;99.90;;;;;;4424746;28;657714;-71
2021/04/23 09:13:38;;;;;;;19.47;9.07;;;7.60;99.90;;;;;;4425233;28;656654;-71
2021/04/23 09:16:26;;;;;;;22.47;9.33;;;7.70;99.90;;;;;;4447642;28;657577;-71
2021/04/23 09:19:17;;;;;;;19.07;9.30;;;8.20;99.90;;;;;;4423041;28;656585;-71
2021/04/23 09:22:05;;;;;;;24.83;9.70;;;8.80;99.90;;;;;;4419821;28;657984;-69
2021/04/23 09:25:00;;;;;;;21.70;9.07;;;9.10;99.90;;;;;;4438567;28;657192;-68
2021/04/23 09:27:50;;;;;;;17.83;9.37;;;9.40;99.90;;;;;;4404960;28;657055;-68
2021/04/23 09:30:37;;;;;;;11.43;5.30;;;9.80;99.90;;;;;;4425957;28;656401;-68
2021/04/23 09:33:25;;;;;;;14.05;6.90;;;10.30;99.90;;;;;;4455171;28;656748;-66
2021/04/23 09:36:13;;;;;;;17.80;6.93;;;9.80;99.90;;;;;;4413983;28;658379;-66
2021/04/23 09:39:05;;;;;;;12.67;6.20;;;9.10;99.90;;;;;;4449802;28;657240;-66
2021/04/23 09:41:59;;;;;;;17.93;7.30;;;8.50;99.90;;;;;;4400109;28;656825;-66
2021/04/23 09:44:48;;;;;;;12.73;7.10;;;8.40;99.90;;;;;;4426630;28;656510;-66
2021/04/23 09:47:36;;;;;;;15.40;6.93;;;8.30;99.90;;;;;;4425306;28;657286;-66
2021/04/23 09:50:29;;;;;;;12.63;6.33;;;8.40;99.90;;;;;;4431619;28;656562;-67
2021/04/23 09:53:16;;;;;;;14.87;6.77;;;8.50;99.90;;;;;;4429004;28;657087;-66
2021/04/23 09:56:03;;;;;;;13.10;5.83;;;8.50;99.90;;;;;;4429184;28;656982;-66
2021/04/23 09:59:05;;;;;;;10.53;5.50;;;8.80;99.90;;;;;;4446658;28;657745;-69
2021/04/23 10:01:58;;;;;;;12.37;6.17;;;9.20;99.90;;;;;;4408137;28;656877;-69
2021/04/23 10:04:45;;;;;;;12.60;5.87;;;9.20;99.90;;;;;;4422517;28;657127;-70
2021/04/23 10:07:32;;;;;;;13.33;6.33;;;8.70;99.90;;;;;;4419374;28;656573;-67
2021/04/23 10:10:20;;;;;;;11.50;5.80;;;8.50;99.90;;;;;;4449658;28;656542;-70
2021/04/23 10:13:08;;;;;;;11.90;6.07;;;8.20;99.90;;;;;;4446187;28;657624;-69
2021/04/23 10:15:55;;;;;;;11.67;5.97;;;7.50;99.90;;;;;;4422880;28;656951;-70
2021/04/23 10:18:43;;;;;;;8.40;4.37;;;7.10;99.90;;;;;;4430282;28;656528;-69
2021/04/23 10:21:30;;;;;;;6.67;3.73;;;6.70;99.90;;;;;;4449439;28;656225;-70
2021/04/23 10:24:17;;;;;;;9.93;3.80;;;6.20;99.90;;;;;;4426051;28;655508;-66
2021/04/23 10:27:05;;;;;;;6.87;3.70;;;5.60;99.90;;;;;;4454712;28;655380;-67
2021/04/23 10:29:53;;;;;;;6.90;3.23;;;5.60;99.90;;;;;;4442753;28;655200;-67
2021/04/23 10:32:40;;;;;;;8.77;4.73;;;6.20;99.90;;;;;;4451920;28;656376;-67
2021/04/23 10:35:28;;;;;;;10.57;5.68;;;7.00;99.90;;;;;;4427549;28;655662;-67
2021/04/23 10:38:16;;;;;;;11.73;5.73;;;7.40;99.90;;;;;;4449797;28;657946;-68
2021/04/23 10:41:05;;;;;;;12.77;6.13;;;7.50;99.90;;;;;;4426961;28;656792;-69
2021/04/23 10:43:53;;;;;;;15.87;6.53;;;7.60;99.90;;;;;;4447783;28;656498;-68
2021/04/23 10:46:51;;;;;;;12.33;6.23;;;7.60;99.90;;;;;;4447047;28;657584;-69
2021/04/23 10:50:08;;;;;;;17.97;7.20;;;7.70;99.90;;;;;;4430518;28;656977;-70
2021/04/23 10:53:04;;;;;;;15.73;7.20;;;8.20;99.90;;;;;;4396810;28;656994;-69
2021/04/23 10:55:52;;;;;;;16.30;8.90;;;8.10;99.90;;;;;;4429060;28;657064;-70
2021/04/23 10:58:40;;;;;;;14.93;8.27;;;8.20;99.90;;;;;;4429163;28;656669;-69
2021/04/23 11:01:37;;;;;;;16.00;8.50;;;8.30;99.90;;;;;;4441238;28;657171;-70
2021/04/23 11:04:24;;;;;;;13.70;7.27;;;8.60;99.90;;;;;;4399343;28;656781;-69
2021/04/23 11:07:11;;;;;;;12.07;6.93;;;9.30;99.90;;;;;;4441914;28;656983;-69
2021/04/23 11:09:59;;;;;;;16.80;7.40;;;10.00;99.90;;;;;;4423023;28;656882;-69
2021/04/23 11:12:47;;;;;;;14.75;6.35;;;10.70;99.90;;;;;;4447194;28;657856;-70
2021/04/23 11:15:34;;;;;;;13.57;6.57;;;10.80;99.90;;;;;;4424021;28;658614;-69
2021/04/23 11:18:27;;;;;;;16.37;6.67;;;10.50;99.90;;;;;;4441653;28;657806;-70
2021/04/23 11:21:37;;;;;;;9.70;5.23;;;10.30;99.90;;;;;;4400519;28;657960;-70
2021/04/23 11:24:24;;;;;;;11.63;5.77;;;10.20;99.90;;;;;;4426580;28;657076;-70
2021/04/23 11:27:12;;;;;;;18.37;8.00;;;10.00;99.90;;;;;;4445752;28;657689;-70
2021/04/23 11:30:08;;;;;;;16.77;7.90;;;9.20;99.90;;;;;;4426129;28;659024;-69
2021/04/23 11:32:56;;;;;;;8.77;5.63;;;8.00;99.90;;;;;;4424077;28;656874;-70
2021/04/23 11:35:42;;;;;;;12.20;6.03;;;6.80;99.90;;;;;;4423654;28;655511;-69
2021/04/23 11:38:54;;;;;;;15.33;9.13;;;6.10;99.90;;;;;;4448454;28;657044;-70
2021/04/23 11:42:07;;;;;;;16.87;8.53;;;5.70;99.90;;;;;;4421408;28;656646;-70
2021/04/23 11:44:57;;;;;;;19.00;9.57;;;5.20;99.90;;;;;;4402324;28;657175;-69
2021/04/23 11:47:45;;;;;;;21.03;9.40;;;5.10;99.90;;;;;;4426414;28;657225;-69
2021/04/23 11:50:33;;;;;;;23.10;10.83;;;5.00;99.90;;;;;;4427020;28;656351;-69
2021/04/23 11:53:20;;;;;;;18.50;9.83;;;5.20;99.90;;;;;;4446275;28;657706;-69
2021/04/23 11:56:07;;;;;;;21.23;10.15;;;5.40;99.90;;;;;;4423252;28;656515;-69
2021/04/23 11:58:54;;;;;;;23.52;11.20;;;5.80;99.90;;;;;;4451891;28;658183;-69
2021/04/23 12:01:42;;;;;;;21.73;11.60;;;6.20;99.90;;;;;;4448197;28;657243;-69
2021/04/23 12:04:44;;;;;;;17.27;9.30;;;6.90;99.90;;;;;;4428674;28;658300;-69
2021/04/23 12:07:41;;;;;;;21.43;10.50;;;7.70;99.90;;;;;;4424753;28;656585;-71
2021/04/23 12:10:28;;;;;;;21.77;10.33;;;8.00;99.90;;;;;;4404492;28;657548;-68
2021/04/23 12:13:16;;;;;;;18.30;10.20;;;8.10;99.90;;;;;;4447069;28;658347;-70
2021/04/23 12:16:04;;;;;;;16.00;7.37;;;7.90;99.90;;;;;;4428419;28;657682;-69
2021/04/23 12:18:54;;;;;;;17.70;8.77;;;8.00;99.90;;;;;;4447413;28;656901;-69
2021/04/23 12:21:41;;;;;;;20.00;8.47;;;8.10;99.90;;;;;;4425549;28;657038;-69
2021/04/23 12:24:28;;;;;;;17.23;7.80;;;8.30;99.90;;;;;;4421601;28;656853;-69
2021/04/23 12:27:15;;;;;;;12.17;6.13;;;8.20;99.90;;;;;;4445511;28;657137;-69
2021/04/23 12:30:02;;;;;;;12.93;5.60;;;8.30;99.90;;;;;;4446392;28;656595;-68
2021/04/23 12:32:53;;;;;;;18.27;6.33;;;8.10;99.90;;;;;;4450193;28;657340;-68
2021/04/23 12:35:42;;;;;;;14.17;6.90;;;8.00;99.90;;;;;;4423926;28;657215;-69
2021/04/23 12:38:36;;;;;;;11.87;6.00;;;8.00;99.90;;;;;;4424425;28;656936;-69
2021/04/23 12:41:25;;;;;;;13.27;6.30;;;8.20;99.90;;;;;;4424575;28;656728;-70
2021/04/23 12:44:15;;;;;;;14.70;6.13;;;8.20;99.90;;;;;;4420067;28;656844;-69
2021/04/23 12:47:03;;;;;;;17.77;6.40;;;8.80;99.90;;;;;;4444939;28;658065;-69
2021/04/23 12:49:50;;;;;;;16.30;7.43;;;9.20;99.90;;;;;;4448931;28;656562;-67
2021/04/23 12:52:38;;;;;;;15.20;7.22;;;9.40;99.90;;;;;;4432491;28;656705;-67
2021/04/23 12:55:25;;;;;;;14.80;6.60;;;9.50;99.90;;;;;;4441232;28;657460;-66
2021/04/23 12:58:12;;;;;;;12.50;6.47;;;8.50;99.90;;;;;;4428535;28;656661;-66
2021/04/23 13:01:02;;;;;;;10.40;5.27;;;8.20;99.90;;;;;;4447854;28;657029;-65
2021/04/23 13:04:06;;;;;;;9.90;5.83;;;7.70;99.90;;;;;;4420381;28;657142;-69
2021/04/23 13:06:54;;;;;;;10.57;5.57;;;6.50;99.90;;;;;;4396994;28;656038;-69
2021/04/23 13:09:42;;;;;;;15.13;5.80;;;5.90;99.90;;;;;;4446611;28;657008;-70
2021/04/23 13:12:34;;;;;;;16.63;6.73;;;5.70;99.90;;;;;;4426967;28;657963;-69
2021/04/23 13:15:27;;;;;;;11.83;5.63;;;5.50;99.90;;;;;;4423879;28;656993;-69
2021/04/23 13:18:18;;;;;;;15.93;7.23;;;5.40;99.90;;;;;;4428323;28;656709;-69
2021/04/23 13:21:07;;;;;;;14.93;7.33;;;5.20;99.90;;;;;;4421306;28;656905;-69
2021/04/23 13:23:54;;;;;;;15.23;7.33;;;5.10;99.90;;;;;;4417283;28;657026;-69
2021/04/23 13:26:42;;;;;;;13.10;5.37;;;5.00;99.90;;;;;;4447239;28;657262;-69
2021/04/23 13:29:38;;;;;;;16.53;8.43;;;5.10;99.90;;;;;;4422525;28;656580;-69
2021/04/23 13:32:26;;;;;;;19.63;9.27;;;5.00;99.90;;;;;;4424343;28;656889;-70
2021/04/23 13:35:14;;;;;;;21.50;9.93;;;5.10;99.90;;;;;;4422276;28;656527;-69
2021/04/23 13:38:24;;;;;;;19.30;9.43;;;5.20;99.90;;;;;;4433193;28;656944;-70
2021/04/23 13:41:23;;;;;;;25.50;8.53;;;5.40;99.90;;;;;;4420430;28;656967;-69
2021/04/23 13:44:12;;;;;;;17.93;9.17;;;5.50;99.90;;;;;;4417518;28;656898;-70
2021/04/23 13:46:59;;;;;;;20.10;9.50;;;5.80;99.90;;;;;;4427346;28;656286;-68
2021/04/23 13:49:46;;;;;;;18.53;10.20;;;6.30;99.90;;;;;;4439833;28;656334;-70
2021/04/23 13:52:33;;;;;;;25.03;10.13;;;6.90;99.90;;;;;;4427002;28;658334;-70
2021/04/23 13:55:20;;;;;;;17.57;8.90;;;7.40;99.90;;;;;;4440343;28;658618;-70
2021/04/23 13:58:07;;;;;;;20.33;8.10;;;7.70;99.90;;;;;;4433124;28;656705;-69
2021/04/23 14:00:56;;;;;;;16.87;7.63;;;7.90;99.90;;;;;;4445841;28;657291;-69
2021/04/23 14:03:43;;;;;;;22.40;9.10;;;8.20;99.90;;;;;;4426279;28;656801;-69
2021/04/23 14:06:30;;;;;;;24.83;10.77;;;8.60;99.90;;;;;;4446451;28;657059;-71
2021/04/23 14:09:18;;;;;;;31.43;14.40;;;9.10;99.90;;;;;;4422126;28;657498;-68
2021/04/23 14:12:06;;;;;;;26.03;12.13;;;9.70;99.90;;;;;;4438474;28;657471;-70
2021/04/23 14:14:53;;;;;;;24.00;12.60;;;9.50;99.90;;;;;;4410330;28;657385;-69
2021/04/23 14:17:42;;;;;;;26.87;11.57;;;9.20;99.90;;;;;;4448848;28;658497;-69